createdAt,value
2022-10-16T00:01:42.043Z,1.90
2022-10-16T00:06:28.515Z,1.66
2022-10-16T00:11:34.821Z,1.50
2022-10-16T00:16:41.064Z,1.56
2022-10-16T00:21:47.480Z,1.78
2022-10-16T00:26:53.900Z,1.70
2022-10-16T00:32:00.317Z,2.49
2022-10-16T00:37:08.966Z,2.44
2022-10-16T00:42:15.248Z,1.17
2022-10-16T00:47:21.583Z,1.33
2022-10-16T00:52:28.087Z,1.68
2022-10-16T00:57:34.044Z,1.33
2022-10-16T01:02:40.337Z,1.50
2022-10-16T01:07:46.555Z,1.87
2022-10-16T01:12:52.849Z,3.09
2022-10-16T01:17:59.109Z,2.05
2022-10-16T01:23:05.497Z,2.33
2022-10-16T01:28:11.915Z,1.97
2022-10-16T01:33:18.908Z,1.48
2022-10-16T01:38:25.187Z,1.40
2022-10-16T01:43:31.507Z,1.41
2022-10-16T01:48:37.746Z,1.66
2022-10-16T01:53:44.033Z,2.15
2022-10-16T01:58:50.251Z,2.27
2022-10-16T02:03:56.441Z,1.46
2022-10-16T02:09:02.566Z,1.23
2022-10-16T02:14:08.810Z,1.90
2022-10-16T02:19:15.221Z,1.06
2022-10-16T02:24:21.671Z,1.14
2022-10-16T02:29:27.919Z,1.08
2022-10-16T02:34:34.210Z,1.59
2022-10-16T02:39:40.739Z,1.52
2022-10-16T02:44:47.087Z,0.87
2022-10-16T02:49:53.531Z,1.38
2022-10-16T02:54:59.803Z,0.94
2022-10-16T03:00:06.056Z,0.98
2022-10-16T03:05:12.467Z,1.03
2022-10-16T03:10:18.725Z,0.97
2022-10-16T03:15:24.936Z,1.17
2022-10-16T03:20:31.352Z,1.05
2022-10-16T03:25:37.811Z,1.41
2022-10-16T03:30:44.128Z,0.93
2022-10-16T03:35:52.106Z,0.93
2022-10-16T03:40:58.305Z,0.97
2022-10-16T03:46:04.751Z,1.04
2022-10-16T03:51:11.039Z,1.01
2022-10-16T03:56:17.572Z,1.04
2022-10-16T04:01:24.837Z,1.00
2022-10-16T04:06:31.111Z,1.66
2022-10-16T04:11:37.419Z,0.99
2022-10-16T04:16:43.698Z,1.24
2022-10-16T04:21:49.927Z,1.22
2022-10-16T04:26:56.298Z,1.12
2022-10-16T04:32:02.631Z,1.17
2022-10-16T04:37:09.098Z,1.21
2022-10-16T04:42:15.287Z,1.93
2022-10-16T04:47:21.537Z,1.85
2022-10-16T04:52:27.880Z,1.86
2022-10-16T04:57:34.233Z,1.31
2022-10-16T05:02:40.526Z,2.00
2022-10-16T05:07:46.817Z,2.18
2022-10-16T05:12:53.018Z,2.07
2022-10-16T05:17:59.318Z,1.24
2022-10-16T05:23:05.568Z,1.22
2022-10-16T05:28:11.882Z,1.54
2022-10-16T05:33:18.152Z,1.46
2022-10-16T05:38:24.570Z,1.28
2022-10-16T05:43:30.985Z,1.24
2022-10-16T05:48:37.194Z,1.78
2022-10-16T05:58:49.405Z,1.36
2022-10-16T06:03:55.729Z,1.56
2022-10-16T06:09:02.047Z,2.17
2022-10-16T06:14:08.401Z,1.30
2022-10-16T06:19:14.786Z,1.92
2022-10-16T06:24:21.044Z,2.86
2022-10-16T06:29:27.339Z,1.63
2022-10-16T06:34:39.420Z,2.15
2022-10-16T06:39:43.446Z,2.33
2022-10-16T06:44:49.808Z,2.07
2022-10-16T06:49:56.061Z,1.73
2022-10-16T06:55:02.335Z,1.95
2022-10-16T07:00:08.596Z,1.41
2022-10-16T07:05:15.009Z,1.19
2022-10-16T07:10:21.359Z,1.21
2022-10-16T07:15:27.737Z,1.27
2022-10-16T07:20:34.175Z,1.48
2022-10-16T07:25:40.586Z,1.96
2022-10-16T07:30:46.833Z,1.77
2022-10-16T07:35:53.056Z,1.54
2022-10-16T07:40:59.289Z,1.50
2022-10-16T07:46:06.626Z,1.32
2022-10-16T07:51:11.431Z,1.52
2022-10-16T07:56:17.689Z,1.50
2022-10-16T08:01:24.021Z,1.17
2022-10-16T08:06:30.189Z,1.51
2022-10-16T08:11:36.430Z,1.38
2022-10-16T08:16:42.642Z,2.39
2022-10-16T08:21:48.947Z,3.76
2022-10-16T08:26:55.415Z,1.47
2022-10-16T08:32:01.588Z,1.61
2022-10-16T08:37:07.788Z,1.25
2022-10-16T08:42:15.196Z,1.15
2022-10-16T08:47:21.423Z,1.14
2022-10-16T08:52:28.084Z,1.25
2022-10-16T08:57:33.457Z,0.76
2022-10-16T09:02:39.791Z,0.81
2022-10-16T09:07:46.039Z,0.66
2022-10-16T09:12:52.348Z,1.03
2022-10-16T09:17:58.754Z,0.63
2022-10-16T09:23:04.994Z,0.48
2022-10-16T09:28:11.201Z,0.90
2022-10-16T09:33:17.444Z,1.15
2022-10-16T09:38:23.684Z,0.45
2022-10-16T09:43:30.119Z,0.52
2022-10-16T09:48:36.408Z,0.77
2022-10-16T09:53:42.762Z,0.82
2022-10-16T09:58:58.795Z,0.33
2022-10-16T10:03:55.069Z,0.68
2022-10-16T10:09:01.449Z,0.51
2022-10-16T10:14:07.762Z,0.36
2022-10-16T10:19:16.150Z,0.26
2022-10-16T10:24:22.461Z,0.32
2022-10-16T10:29:28.745Z,0.32
2022-10-16T10:34:35.150Z,0.26
2022-10-16T10:39:41.385Z,0.32
2022-10-16T10:44:47.615Z,0.52
2022-10-16T10:49:53.844Z,0.26
2022-10-16T10:55:00.123Z,0.34
2022-10-16T11:00:07.432Z,0.27
2022-10-16T11:05:13.753Z,0.37
2022-10-16T11:10:19.974Z,0.47
2022-10-16T11:15:26.293Z,0.27
2022-10-16T11:20:32.524Z,0.34
2022-10-16T11:25:38.776Z,0.30
2022-10-16T11:30:45.153Z,0.55
2022-10-16T11:35:51.430Z,0.49
2022-10-16T11:40:57.652Z,0.44
2022-10-16T11:46:06.459Z,0.36
2022-10-16T11:51:09.672Z,0.57
2022-10-16T11:56:16.040Z,1.00
2022-10-16T12:01:22.363Z,0.73
2022-10-16T12:06:28.713Z,0.42
2022-10-16T12:11:55.913Z,0.61
2022-10-16T12:16:44.838Z,0.41
2022-10-16T12:21:50.751Z,0.52
2022-10-16T12:26:59.733Z,0.97
2022-10-16T12:32:34.967Z,0.41
2022-10-16T12:37:12.184Z,0.58
2022-10-16T12:42:17.051Z,0.42
2022-10-16T12:47:23.287Z,0.41
2022-10-16T12:52:29.722Z,0.43
2022-10-16T12:57:38.269Z,0.43
2022-10-16T13:02:41.843Z,0.37
2022-10-16T13:07:48.298Z,0.47
2022-10-16T13:12:54.646Z,0.79
2022-10-16T13:18:00.986Z,0.49
2022-10-16T13:23:07.205Z,0.43
2022-10-16T13:28:21.665Z,0.24
2022-10-16T13:33:17.863Z,0.52
2022-10-16T13:38:24.167Z,0.50
2022-10-16T13:43:30.551Z,0.41
2022-10-16T13:48:38.384Z,0.42
2022-10-16T13:53:46.013Z,0.46
2022-10-16T13:58:53.447Z,0.78
2022-10-16T14:03:59.931Z,0.39
2022-10-16T14:09:06.248Z,0.64
2022-10-16T14:14:12.555Z,0.42
2022-10-16T14:19:20.107Z,0.42
2022-10-16T14:24:26.368Z,0.69
2022-10-16T14:29:32.734Z,0.34
2022-10-16T14:34:39.067Z,0.61
2022-10-16T14:39:45.330Z,0.65
2022-10-16T14:44:55.810Z,0.43
2022-10-16T14:49:52.114Z,0.52
2022-10-16T14:54:58.479Z,0.52
2022-10-16T15:00:04.897Z,0.78
2022-10-16T15:05:11.136Z,0.39
2022-10-16T15:10:17.476Z,1.01
2022-10-16T15:15:26.203Z,0.57
2022-10-16T15:20:33.856Z,0.58
2022-10-16T15:25:41.235Z,0.63
2022-10-16T15:30:47.273Z,0.48
2022-10-16T15:35:53.514Z,0.60
2022-10-16T15:40:59.852Z,0.63
2022-10-16T15:46:06.517Z,1.00
2022-10-16T15:51:12.775Z,0.59
2022-10-16T15:56:19.122Z,0.95
2022-10-16T16:01:25.503Z,0.72
2022-10-16T16:06:31.683Z,0.81
2022-10-16T16:11:37.945Z,0.93
2022-10-16T16:16:45.323Z,1.31
2022-10-16T16:21:51.765Z,0.79
2022-10-16T16:31:59.501Z,1.50
2022-10-16T16:37:05.724Z,1.59
2022-10-16T16:42:12.025Z,0.94
2022-10-16T16:47:18.269Z,1.02
2022-10-16T16:52:24.501Z,0.88
2022-10-16T16:57:31.735Z,0.86
2022-10-16T17:02:37.982Z,1.06
2022-10-16T17:07:47.201Z,0.72
2022-10-16T17:17:59.628Z,0.98
2022-10-16T17:23:13.872Z,0.91
2022-10-16T17:28:07.969Z,1.28
2022-10-16T17:33:14.235Z,0.99
